New Wells, Missouri
Current Conditions -  °F | °C
As of 7:53 AM on Monday 26 Jan 2015 (Local Time) from KCGI Reporting Station
Scattered Clouds Scattered Clouds  
Wind Chill: 25°   Ceiling: Unl
Heat Index: 30°   Visibility: 10mi
Dew Point: 27°   Wind: 5mph
Humidity: 88%   Direction: 330°NNW
Pressure: 30.07"   Gusts: NA
Location:  37.5371°N, 89.5821°W
Report Text: KCGI 261353Z 33004KT 10SM SCT018 M01/M03 A3007 RMK AO2 SLP185 T10111028
Loading
Personal Weather Stations






























Interactive Weather Map New forecast layout! Learn more

10-Day Weather Forecast

Advertisements
Track Severe Weather on mobile